Time;durP1;ratioP1;P1;durP2;ratioP2;P2;SDS_P1;SDS_P2;PMS_P1;PMS_P2;Temp;Humidity;BMP_temperature;BMP_pressure;BME280_temperature;BME280_humidity;BME280_pressure;Samples;Min_cycle;Max_cycle;Signal;HPM_P1;HPM_P2
2022/03/04 00:01:14;;;;;;;18.13;9.18;;;4.60;92.50;;;;;;5010891;28;20514;-72
2022/03/04 00:03:40;;;;;;;22.75;10.00;;;4.60;92.60;;;;;;5010840;28;20064;-71
2022/03/04 00:06:06;;;;;;;21.75;9.82;;;4.50;92.70;;;;;;5011312;28;20337;-72
2022/03/04 00:08:31;;;;;;;20.70;10.05;;;4.50;92.80;;;;;;5010625;28;20037;-72
2022/03/04 00:10:57;;;;;;;20.10;9.73;;;4.60;92.60;;;;;;5010698;28;20030;-71
2022/03/04 00:13:23;;;;;;;20.95;9.73;;;4.50;92.60;;;;;;5010896;28;20029;-71
2022/03/04 00:15:49;;;;;;;21.02;9.65;;;4.30;92.80;;;;;;4993235;28;20092;-73
2022/03/04 00:18:15;;;;;;;22.42;9.27;;;4.50;92.90;;;;;;5011101;28;20117;-72
2022/03/04 00:20:41;;;;;;;18.23;9.38;;;4.50;92.90;;;;;;5010609;28;20040;-72
2022/03/04 00:23:07;;;;;;;25.30;10.45;;;4.60;92.90;;;;;;5010419;28;20530;-72
2022/03/04 00:25:33;;;;;;;23.95;11.65;;;4.60;92.80;;;;;;5010521;28;20038;-72
2022/03/04 00:27:59;;;;;;;28.05;12.70;;;4.50;92.90;;;;;;5010411;28;20049;-73
2022/03/04 00:30:24;;;;;;;26.63;12.20;;;4.60;92.70;;;;;;5010998;28;20437;-71
2022/03/04 00:32:50;;;;;;;25.10;12.52;;;4.50;92.60;;;;;;5010523;28;20048;-72
2022/03/04 00:35:16;;;;;;;27.40;12.63;;;4.50;92.60;;;;;;4992748;28;20034;-70
2022/03/04 00:37:41;;;;;;;24.98;11.48;;;4.50;92.60;;;;;;5010743;28;20061;-72
2022/03/04 00:40:08;;;;;;;24.75;11.85;;;4.40;92.70;;;;;;5010406;28;20038;-72
2022/03/04 00:42:34;;;;;;;25.70;12.57;;;4.40;92.70;;;;;;5010889;28;20102;-71
2022/03/04 00:45:00;;;;;;;25.85;10.85;;;4.40;92.80;;;;;;5010530;28;20141;-72
2022/03/04 00:47:25;;;;;;;23.92;10.27;;;4.40;92.80;;;;;;5010381;28;20110;-72
2022/03/04 00:49:51;;;;;;;21.95;10.55;;;4.50;92.80;;;;;;5010474;28;20104;-72
2022/03/04 00:52:17;;;;;;;19.05;10.07;;;4.60;92.60;;;;;;5010219;28;20049;-72
2022/03/04 00:54:42;;;;;;;24.92;10.48;;;4.60;92.50;;;;;;4996601;28;20040;-70
2022/03/04 00:57:08;;;;;;;26.10;11.90;;;4.60;92.50;;;;;;5014641;28;20030;-71
2022/03/04 00:59:33;;;;;;;26.15;11.95;;;4.60;92.60;;;;;;5014217;28;20072;-72
2022/03/04 01:01:59;;;;;;;23.52;10.10;;;4.60;92.60;;;;;;5014027;28;20034;-71
2022/03/04 01:04:25;;;;;;;22.15;10.55;;;4.60;92.60;;;;;;5014109;28;20049;-71
2022/03/04 01:06:50;;;;;;;23.38;11.25;;;4.70;92.50;;;;;;4996530;28;20030;-72
2022/03/04 01:09:16;;;;;;;26.13;11.88;;;4.70;92.40;;;;;;5014258;28;20463;-71
2022/03/04 01:11:42;;;;;;;23.15;10.63;;;4.70;92.40;;;;;;5014145;28;20033;-71
2022/03/04 01:14:08;;;;;;;28.98;11.43;;;4.60;92.50;;;;;;5014124;28;20030;-69
2022/03/04 01:16:34;;;;;;;24.65;11.65;;;4.70;92.50;;;;;;5013824;28;20030;-71
2022/03/04 01:19:00;;;;;;;30.05;12.85;;;4.70;92.40;;;;;;5013892;28;20515;-72
2022/03/04 01:21:27;;;;;;;25.35;12.63;;;4.60;92.50;;;;;;5014295;28;20288;-70
2022/03/04 01:23:52;;;;;;;28.27;13.00;;;4.50;92.40;;;;;;5013821;28;20050;-71
2022/03/04 01:26:18;;;;;;;25.63;12.45;;;4.60;92.50;;;;;;5013682;28;20770;-71
2022/03/04 01:28:43;;;;;;;28.92;13.38;;;4.70;92.30;;;;;;5013620;28;20423;-71
2022/03/04 01:31:10;;;;;;;31.10;12.02;;;4.60;92.30;;;;;;5013782;28;20041;-71
2022/03/04 01:33:36;;;;;;;26.15;11.80;;;4.60;92.20;;;;;;5013963;28;20380;-71
2022/03/04 01:36:05;;;;;;;28.52;12.65;;;4.60;92.30;;;;;;4992875;28;20459;-71
2022/03/04 01:38:30;;;;;;;30.80;14.20;;;4.60;92.30;;;;;;4993823;28;20105;-72
2022/03/04 01:40:56;;;;;;;27.40;13.23;;;4.50;92.20;;;;;;4993900;28;20038;-71
2022/03/04 01:43:22;;;;;;;26.85;12.93;;;4.50;92.20;;;;;;4993754;28;20049;-70
2022/03/04 01:45:48;;;;;;;31.13;14.23;;;4.50;92.30;;;;;;4994012;28;20387;-72
2022/03/04 01:48:14;;;;;;;32.67;13.82;;;4.60;92.10;;;;;;4992956;28;20515;-71
2022/03/04 01:50:39;;;;;;;31.35;13.98;;;4.60;92.10;;;;;;4993520;28;20034;-71
2022/03/04 01:53:05;;;;;;;28.42;12.73;;;4.40;91.70;;;;;;4993627;28;20113;-71
2022/03/04 01:55:31;;;;;;;28.02;13.00;;;4.50;91.90;;;;;;4993697;28;20022;-72
2022/03/04 01:57:57;;;;;;;28.35;12.50;;;4.40;92.30;;;;;;4993784;28;20042;-71
2022/03/04 02:00:23;;;;;;;27.25;12.25;;;4.40;92.10;;;;;;4994104;28;20441;-71
2022/03/04 02:02:49;;;;;;;23.13;11.07;;;4.50;92.10;;;;;;4993401;28;20102;-70
2022/03/04 02:05:16;;;;;;;27.48;11.48;;;4.60;92.00;;;;;;4993392;28;20080;-71
2022/03/04 02:07:42;;;;;;;28.02;12.07;;;4.60;92.00;;;;;;4993318;28;20108;-72
2022/03/04 02:10:08;;;;;;;27.83;11.05;;;4.50;92.00;;;;;;4993377;28;20035;-71
2022/03/04 02:12:35;;;;;;;22.90;10.68;;;4.60;92.00;;;;;;4993857;28;20018;-71
2022/03/04 02:15:02;;;;;;;20.20;10.00;;;4.60;91.80;;;;;;4993401;28;20447;-70
2022/03/04 02:17:28;;;;;;;21.90;9.37;;;4.60;91.70;;;;;;4993281;28;20034;-71
2022/03/04 02:19:54;;;;;;;21.42;9.50;;;4.50;91.80;;;;;;4993164;28;20264;-71
2022/03/04 02:22:20;;;;;;;18.45;8.40;;;4.50;91.80;;;;;;4992083;28;20057;-70
2022/03/04 02:24:45;;;;;;;20.60;8.77;;;4.60;91.90;;;;;;4993168;28;20110;-71
2022/03/04 02:27:11;;;;;;;19.10;8.80;;;4.40;91.90;;;;;;4992422;28;20349;-71
2022/03/04 02:29:37;;;;;;;22.30;8.73;;;4.40;92.00;;;;;;4993062;28;20488;-71
2022/03/04 02:32:03;;;;;;;21.10;8.65;;;4.60;92.00;;;;;;4993008;28;20062;-72
2022/03/04 02:34:29;;;;;;;25.88;9.15;;;4.60;91.90;;;;;;4992853;28;20031;-72
2022/03/04 02:36:55;;;;;;;18.52;8.93;;;4.60;92.00;;;;;;5022803;28;20394;-71
2022/03/04 02:39:21;;;;;;;18.83;8.25;;;4.60;92.00;;;;;;5032728;28;20021;-71
2022/03/04 02:41:46;;;;;;;16.70;8.00;;;4.70;91.90;;;;;;5032276;28;20030;-71
2022/03/04 02:44:14;;;;;;;15.75;7.82;;;4.70;92.00;;;;;;5032334;28;20364;-72
2022/03/04 02:46:41;;;;;;;21.08;8.55;;;4.70;91.90;;;;;;5014765;28;20037;-72
2022/03/04 02:49:09;;;;;;;21.77;8.82;;;4.80;91.70;;;;;;5032159;28;20356;-71
2022/03/04 02:51:35;;;;;;;16.42;8.27;;;4.80;91.70;;;;;;5032327;28;20439;-71
2022/03/04 02:54:01;;;;;;;17.33;7.60;;;4.80;91.70;;;;;;5031970;28;20033;-72
2022/03/04 02:56:27;;;;;;;18.38;8.82;;;4.80;91.60;;;;;;5031678;28;20036;-70
2022/03/04 02:58:52;;;;;;;21.27;8.65;;;4.90;91.70;;;;;;5031783;28;20606;-71
2022/03/04 03:01:18;;;;;;;16.23;7.20;;;4.90;91.40;;;;;;5031784;28;20058;-71
2022/03/04 03:03:44;;;;;;;15.48;6.82;;;4.80;91.40;;;;;;5031711;28;20529;-71
2022/03/04 03:06:10;;;;;;;16.45;7.22;;;4.70;91.50;;;;;;5032084;28;20120;-72
2022/03/04 03:08:36;;;;;;;19.42;8.02;;;4.70;91.30;;;;;;5031476;28;20034;-71
2022/03/04 03:11:04;;;;;;;14.90;7.22;;;4.70;91.50;;;;;;5031616;28;20052;-71
2022/03/04 03:13:30;;;;;;;15.95;7.75;;;4.80;91.50;;;;;;5031362;28;20035;-71
2022/03/04 03:15:56;;;;;;;14.77;7.10;;;4.80;91.50;;;;;;5030918;28;20033;-72
2022/03/04 03:18:21;;;;;;;15.70;7.13;;;4.90;91.40;;;;;;5031949;28;20025;-71
2022/03/04 03:20:47;;;;;;;18.50;7.13;;;4.90;91.60;;;;;;5031491;28;20397;-71
2022/03/04 03:23:12;;;;;;;19.27;7.05;;;4.90;91.30;;;;;;5031313;28;20415;-71
2022/03/04 03:25:38;;;;;;;15.45;7.25;;;4.90;91.40;;;;;;5013659;28;20108;-71
2022/03/04 03:28:04;;;;;;;17.08;7.45;;;5.00;91.30;;;;;;5031104;28;20483;-71
2022/03/04 03:30:30;;;;;;;13.95;6.38;;;5.00;91.40;;;;;;5031768;28;20025;-72
2022/03/04 03:32:56;;;;;;;13.93;6.53;;;4.90;91.30;;;;;;5031137;28;20041;-71
2022/03/04 03:35:22;;;;;;;15.38;7.10;;;5.20;91.40;;;;;;5030834;28;20090;-71
2022/03/04 03:37:48;;;;;;;13.27;6.70;;;5.00;91.40;;;;;;5031098;28;20037;-71
2022/03/04 03:40:13;;;;;;;11.65;6.07;;;5.00;91.10;;;;;;5030889;28;20034;-70
2022/03/04 03:42:39;;;;;;;16.17;7.07;;;5.10;91.30;;;;;;5030989;28;20030;-71
2022/03/04 03:45:07;;;;;;;13.63;6.95;;;4.80;91.30;;;;;;5031474;28;20039;-70
2022/03/04 03:47:33;;;;;;;16.02;7.35;;;4.70;91.50;;;;;;5030848;28;20034;-72
2022/03/04 03:49:59;;;;;;;16.75;7.40;;;4.70;91.50;;;;;;5030941;28;20040;-72
2022/03/04 03:52:25;;;;;;;15.65;7.80;;;4.90;91.50;;;;;;5030888;28;20251;-72
2022/03/04 03:54:51;;;;;;;17.52;7.40;;;4.80;91.40;;;;;;5030789;28;20379;-72
2022/03/04 03:57:16;;;;;;;15.65;7.32;;;4.80;91.50;;;;;;5013831;28;20029;-72
2022/03/04 03:59:42;;;;;;;18.02;7.68;;;4.90;91.60;;;;;;5030816;28;20033;-72
2022/03/04 04:02:08;;;;;;;16.73;6.63;;;4.90;91.60;;;;;;5030763;28;20037;-72
2022/03/04 04:04:34;;;;;;;13.20;7.28;;;4.90;91.50;;;;;;5013180;28;20040;-71
2022/03/04 04:07:04;;;;;;;14.63;7.75;;;5.10;91.50;;;;;;5012960;28;20041;-72
2022/03/04 04:09:30;;;;;;;17.40;8.70;;;5.00;91.30;;;;;;5013448;28;20064;-72
2022/03/04 04:11:56;;;;;;;13.32;6.95;;;5.00;91.20;;;;;;5030595;28;20406;-71
2022/03/04 04:14:21;;;;;;;15.02;7.85;;;5.00;91.20;;;;;;5030633;28;20025;-72
2022/03/04 04:16:47;;;;;;;15.43;7.70;;;5.00;91.30;;;;;;5030608;28;20367;-73
2022/03/04 04:19:12;;;;;;;12.15;6.40;;;5.00;91.40;;;;;;5030413;28;20083;-72
2022/03/04 04:21:38;;;;;;;16.98;7.38;;;5.10;91.30;;;;;;5030420;28;20026;-72
2022/03/04 04:24:04;;;;;;;17.10;7.68;;;5.00;91.30;;;;;;5030959;28;20471;-71
2022/03/04 04:26:31;;;;;;;12.88;7.05;;;5.00;91.30;;;;;;5030299;28;20030;-70
2022/03/04 04:28:57;;;;;;;14.23;7.65;;;4.90;91.30;;;;;;5011933;28;20099;-70
2022/03/04 04:31:23;;;;;;;14.38;7.80;;;5.00;91.20;;;;;;5030562;28;20033;-70
2022/03/04 04:33:49;;;;;;;14.27;7.15;;;5.00;91.20;;;;;;5030222;28;20025;-70
2022/03/04 04:36:15;;;;;;;15.95;7.47;;;4.90;91.30;;;;;;5009907;28;20053;-71
2022/03/04 04:38:41;;;;;;;17.95;7.50;;;4.90;91.30;;;;;;5010465;28;20476;-72
2022/03/04 04:41:06;;;;;;;20.73;7.93;;;4.90;91.20;;;;;;5010595;28;20105;-72
2022/03/04 04:43:33;;;;;;;16.88;7.15;;;4.80;91.40;;;;;;5010775;28;20113;-71
2022/03/04 04:45:59;;;;;;;12.43;6.32;;;4.80;91.40;;;;;;5009509;28;20034;-71
2022/03/04 04:48:24;;;;;;;16.63;7.03;;;4.80;91.30;;;;;;5010957;28;20518;-72
2022/03/04 04:50:50;;;;;;;17.38;7.43;;;4.80;91.30;;;;;;5010542;28;20100;-72
2022/03/04 04:53:16;;;;;;;14.30;6.65;;;4.80;91.20;;;;;;5010462;28;20110;-72
2022/03/04 04:55:42;;;;;;;13.75;7.05;;;4.90;91.30;;;;;;5010492;28;20080;-71
2022/03/04 04:58:08;;;;;;;13.38;7.03;;;4.90;91.20;;;;;;5010430;28;20046;-71
2022/03/04 05:00:33;;;;;;;14.82;6.90;;;4.80;91.10;;;;;;5010810;28;20444;-72
2022/03/04 05:02:59;;;;;;;20.25;7.45;;;5.00;91.20;;;;;;5010420;28;20030;-72
2022/03/04 05:05:24;;;;;;;16.42;7.57;;;4.90;91.20;;;;;;5010364;28;20546;-72
2022/03/04 05:07:50;;;;;;;12.68;6.63;;;4.90;91.20;;;;;;5010175;28;20456;-71
2022/03/04 05:10:15;;;;;;;12.60;6.80;;;4.90;91.10;;;;;;5010161;28;20033;-72
2022/03/04 05:12:41;;;;;;;14.07;6.78;;;4.90;91.20;;;;;;5010141;28;20141;-69
2022/03/04 05:15:07;;;;;;;17.02;8.02;;;4.90;91.10;;;;;;5010696;28;20455;-71
2022/03/04 05:17:33;;;;;;;15.25;7.43;;;4.80;91.20;;;;;;5010159;28;20121;-70
2022/03/04 05:19:59;;;;;;;15.25;6.60;;;4.80;91.30;;;;;;5010102;28;20105;-70
2022/03/04 05:22:24;;;;;;;14.32;6.57;;;4.80;91.20;;;;;;5010166;28;20026;-72
2022/03/04 05:24:50;;;;;;;17.23;7.18;;;4.70;91.20;;;;;;5010187;28;20091;-72
2022/03/04 05:27:16;;;;;;;19.08;6.60;;;4.90;91.30;;;;;;5010705;28;20084;-72
2022/03/04 05:29:42;;;;;;;15.63;6.47;;;4.80;91.20;;;;;;5009960;28;20113;-71
2022/03/04 05:32:07;;;;;;;12.25;6.55;;;4.70;91.00;;;;;;5010220;28;20463;-71
2022/03/04 05:34:34;;;;;;;12.27;6.25;;;4.70;91.30;;;;;;5010185;28;20087;-73
2022/03/04 05:36:59;;;;;;;18.45;7.65;;;4.70;91.30;;;;;;5024058;28;20080;-72
2022/03/04 05:39:25;;;;;;;17.13;7.72;;;4.60;91.30;;;;;;5031899;28;20514;-70
2022/03/04 05:41:51;;;;;;;17.38;7.05;;;4.50;91.30;;;;;;5015740;28;20045;-73
2022/03/04 05:44:16;;;;;;;15.70;7.50;;;4.50;91.30;;;;;;5033045;28;20029;-72
2022/03/04 05:46:42;;;;;;;14.80;6.88;;;4.50;91.40;;;;;;5033115;28;20040;-72
2022/03/04 05:49:07;;;;;;;18.30;7.38;;;4.40;91.40;;;;;;5015363;28;20034;-72
2022/03/04 05:51:34;;;;;;;18.13;7.78;;;4.50;91.50;;;;;;5033471;28;20025;-72
2022/03/04 05:54:00;;;;;;;12.95;6.80;;;4.50;91.40;;;;;;5033009;28;20112;-71
2022/03/04 05:56:25;;;;;;;14.70;7.13;;;4.40;91.40;;;;;;5033410;28;20179;-70
2022/03/04 05:58:51;;;;;;;13.82;6.43;;;4.40;91.60;;;;;;5032930;28;20091;-72
2022/03/04 06:01:16;;;;;;;16.17;7.03;;;4.30;91.50;;;;;;5015322;28;20111;-70
2022/03/04 06:03:43;;;;;;;16.80;7.38;;;4.30;91.50;;;;;;5032907;28;20026;-71
2022/03/04 06:06:11;;;;;;;15.25;7.38;;;4.30;91.70;;;;;;5033410;28;20014;-71
2022/03/04 06:08:37;;;;;;;16.92;8.05;;;4.30;91.70;;;;;;5032802;28;20029;-70
2022/03/04 06:11:10;;;;;;;14.65;7.97;;;4.30;91.80;;;;;;5032782;28;20036;-71
2022/03/04 06:13:36;;;;;;;17.58;6.88;;;4.40;91.70;;;;;;5032885;28;20029;-71
2022/03/04 06:16:06;;;;;;;19.77;7.88;;;4.30;91.70;;;;;;5015306;28;20026;-71
2022/03/04 06:18:31;;;;;;;18.55;6.90;;;4.40;92.00;;;;;;5033125;28;20118;-71
2022/03/04 06:20:58;;;;;;;70.72;11.90;;;4.50;91.80;;;;;;5032630;28;20117;-72
2022/03/04 06:23:23;;;;;;;14.23;7.43;;;4.40;91.60;;;;;;5015128;28;20022;-71
2022/03/04 06:25:50;;;;;;;17.25;7.25;;;4.40;91.70;;;;;;5032660;28;20038;-72
2022/03/04 06:28:16;;;;;;;15.63;7.05;;;4.40;91.70;;;;;;5032355;28;20085;-74
2022/03/04 06:30:42;;;;;;;15.00;7.32;;;4.40;91.80;;;;;;5032534;28;20021;-71
2022/03/04 06:35:53;;;;;;;18.05;6.90;;;4.50;91.60;;;;;;5032270;28;20060;-70
2022/03/04 06:38:19;;;;;;;18.02;8.23;;;4.40;91.80;;;;;;5032198;28;20332;-71
2022/03/04 06:40:46;;;;;;;15.52;7.15;;;4.40;91.80;;;;;;5032242;28;20041;-71
2022/03/04 06:43:12;;;;;;;16.33;8.18;;;4.40;91.80;;;;;;5032378;28;20033;-73
2022/03/04 06:45:39;;;;;;;20.60;8.27;;;4.60;91.80;;;;;;5032174;28;20120;-73
2022/03/04 06:48:05;;;;;;;20.88;8.10;;;4.60;91.70;;;;;;5032499;28;20513;-75
2022/03/04 06:50:31;;;;;;;13.18;7.53;;;4.70;91.70;;;;;;5031079;28;20033;-70
2022/03/04 06:52:56;;;;;;;18.52;8.00;;;4.70;91.50;;;;;;5032203;28;20040;-71
2022/03/04 06:55:22;;;;;;;14.80;7.72;;;4.70;91.60;;;;;;5031723;28;20039;-74
2022/03/04 06:57:51;;;;;;;16.15;7.22;;;4.80;91.50;;;;;;5014184;28;20181;-75
2022/03/04 07:00:20;;;;;;;17.30;7.82;;;4.60;91.40;;;;;;5032205;28;20068;-75
2022/03/04 07:02:46;;;;;;;25.45;7.90;;;4.70;91.60;;;;;;5014447;28;20037;-78
2022/03/04 07:05:12;;;;;;;15.18;7.75;;;4.90;91.60;;;;;;5031730;28;20080;-77
2022/03/04 07:07:38;;;;;;;17.77;8.68;;;4.90;91.40;;;;;;5013793;28;20022;-73
2022/03/04 07:10:05;;;;;;;16.42;7.93;;;4.80;91.50;;;;;;5031336;28;20108;-74
2022/03/04 07:12:30;;;;;;;15.23;7.47;;;4.80;91.60;;;;;;5014089;28;20348;-74
2022/03/04 07:14:56;;;;;;;14.20;7.15;;;4.80;91.90;;;;;;5013980;28;20072;-74
2022/03/04 07:17:22;;;;;;;22.35;11.52;;;4.90;92.00;;;;;;5031478;28;20030;-73
2022/03/04 07:19:48;;;;;;;18.73;8.63;;;4.80;91.50;;;;;;5031319;28;20124;-73
2022/03/04 07:22:13;;;;;;;17.05;8.15;;;4.80;91.70;;;;;;5031223;28;20029;-73
2022/03/04 07:24:39;;;;;;;16.10;7.95;;;4.70;91.70;;;;;;5013417;28;20068;-75
2022/03/04 07:27:05;;;;;;;17.67;7.40;;;4.70;91.70;;;;;;5031487;28;20061;-75
2022/03/04 07:29:31;;;;;;;13.80;7.38;;;4.70;91.80;;;;;;5030822;28;20041;-78
2022/03/04 07:31:56;;;;;;;16.85;8.27;;;4.70;91.80;;;;;;5031073;28;20032;-74
2022/03/04 07:34:24;;;;;;;17.65;7.85;;;4.70;91.80;;;;;;5030731;28;20048;-74
2022/03/04 07:36:51;;;;;;;24.25;10.80;;;4.80;92.00;;;;;;5030656;28;20498;-72
2022/03/04 07:39:17;;;;;;;17.02;8.25;;;4.90;91.80;;;;;;5031182;28;20037;-71
2022/03/04 07:41:42;;;;;;;14.98;8.25;;;4.90;91.60;;;;;;5030000;28;20083;-72
2022/03/04 07:44:10;;;;;;;18.65;8.13;;;5.00;91.70;;;;;;5017423;28;20034;-72
2022/03/04 07:46:36;;;;;;;18.38;7.55;;;4.80;91.70;;;;;;4993947;28;20033;-75
2022/03/04 07:49:03;;;;;;;17.25;7.78;;;4.90;91.50;;;;;;5011756;28;20044;-73
2022/03/04 07:51:29;;;;;;;16.10;8.00;;;4.80;91.30;;;;;;4994385;28;20148;-74
2022/03/04 07:53:55;;;;;;;15.43;7.63;;;4.70;91.40;;;;;;4993659;28;20512;-72
2022/03/04 07:56:21;;;;;;;18.02;8.02;;;4.70;91.50;;;;;;5010727;28;20037;-73
2022/03/04 07:58:46;;;;;;;20.10;7.85;;;4.60;91.50;;;;;;5010527;28;20041;-75
2022/03/04 08:01:12;;;;;;;15.98;7.80;;;4.60;91.70;;;;;;5010625;28;20428;-75
2022/03/04 08:03:38;;;;;;;17.00;7.90;;;4.70;91.70;;;;;;4992728;28;20025;-75
2022/03/04 08:06:06;;;;;;;18.70;7.82;;;4.80;91.50;;;;;;4993628;28;20412;-75
2022/03/04 08:08:32;;;;;;;19.17;7.97;;;5.00;91.40;;;;;;5010513;28;20042;-76
2022/03/04 08:10:57;;;;;;;19.40;7.85;;;4.90;91.20;;;;;;5010488;28;20368;-76
2022/03/04 08:13:23;;;;;;;21.27;9.43;;;4.80;91.20;;;;;;4993380;28;20105;-75
2022/03/04 08:15:48;;;;;;;20.88;9.10;;;5.00;91.40;;;;;;4994189;28;20057;-76
2022/03/04 08:18:14;;;;;;;18.27;8.35;;;5.00;91.10;;;;;;5012829;28;20026;-73
2022/03/04 08:20:40;;;;;;;26.42;9.75;;;5.10;91.10;;;;;;5010763;28;20026;-77
2022/03/04 08:23:06;;;;;;;21.27;8.35;;;5.00;91.20;;;;;;5011731;28;20447;-75
2022/03/04 08:25:31;;;;;;;18.00;8.63;;;5.10;91.10;;;;;;4992927;28;20124;-77
2022/03/04 08:27:57;;;;;;;15.23;8.27;;;5.20;90.90;;;;;;4992624;28;20026;-75
2022/03/04 08:30:23;;;;;;;18.85;6.85;;;5.10;90.80;;;;;;5010617;28;20580;-76
2022/03/04 08:32:49;;;;;;;18.10;8.18;;;5.10;90.70;;;;;;5010005;28;20109;-73
2022/03/04 08:35:14;;;;;;;21.63;8.00;;;4.90;90.70;;;;;;5009694;28;20383;-73
2022/03/04 08:37:40;;;;;;;18.80;8.63;;;4.70;91.00;;;;;;5009741;28;20104;-75
2022/03/04 08:40:11;;;;;;;17.60;7.90;;;4.80;91.00;;;;;;5010077;28;20360;-75
2022/03/04 08:42:38;;;;;;;15.98;7.88;;;4.90;91.00;;;;;;4992767;28;20064;-71
2022/03/04 08:45:04;;;;;;;17.88;8.57;;;5.00;90.90;;;;;;5010702;28;20010;-73
2022/03/04 08:47:30;;;;;;;17.58;8.70;;;5.10;90.90;;;;;;5009724;28;20109;-74
2022/03/04 08:49:55;;;;;;;23.30;8.27;;;5.00;90.90;;;;;;4992110;28;20202;-74
2022/03/04 08:52:21;;;;;;;14.48;7.70;;;5.00;90.90;;;;;;5009900;28;20034;-77
2022/03/04 08:54:47;;;;;;;21.60;9.65;;;5.10;90.90;;;;;;5010084;28;20105;-77
2022/03/04 08:57:12;;;;;;;18.85;9.27;;;5.20;90.80;;;;;;5011084;28;20061;-80
2022/03/04 08:59:38;;;;;;;21.58;9.93;;;5.20;90.70;;;;;;4992740;28;20231;-75
2022/03/04 09:02:05;;;;;;;22.77;9.57;;;5.20;90.80;;;;;;4992830;28;20030;-77
2022/03/04 09:04:30;;;;;;;20.35;9.07;;;5.40;90.80;;;;;;5009887;28;20041;-76
2022/03/04 09:06:56;;;;;;;22.77;10.25;;;5.50;90.60;;;;;;4992630;28;20034;-76
2022/03/04 09:09:22;;;;;;;22.65;10.68;;;5.60;90.40;;;;;;5010192;28;20084;-75
2022/03/04 09:11:47;;;;;;;25.52;11.02;;;5.50;90.40;;;;;;4992382;28;20057;-75
2022/03/04 09:14:13;;;;;;;22.98;11.27;;;5.40;90.30;;;;;;5010927;28;20030;-74
2022/03/04 09:16:39;;;;;;;26.85;10.85;;;5.40;90.30;;;;;;5013753;28;20030;-75
2022/03/04 09:19:04;;;;;;;27.63;12.27;;;5.50;90.20;;;;;;5014050;28;20018;-72
2022/03/04 09:21:30;;;;;;;26.30;11.93;;;5.50;90.20;;;;;;4996722;28;20472;-72
2022/03/04 09:23:55;;;;;;;35.40;12.55;;;5.50;90.40;;;;;;5013536;28;20022;-74
2022/03/04 09:26:21;;;;;;;26.90;12.43;;;5.70;90.20;;;;;;5013831;28;20030;-76
2022/03/04 09:28:47;;;;;;;29.50;14.52;;;5.70;90.10;;;;;;5013297;28;20061;-74
2022/03/04 09:31:13;;;;;;;32.75;15.02;;;5.70;90.00;;;;;;5013018;28;20720;-76
2022/03/04 09:33:39;;;;;;;29.55;12.40;;;5.60;89.80;;;;;;5013248;28;20065;-75
2022/03/04 09:36:06;;;;;;;24.60;11.57;;;5.70;90.00;;;;;;5013744;28;20120;-77
2022/03/04 09:38:32;;;;;;;25.23;11.32;;;5.80;89.90;;;;;;5013026;28;20026;-76
2022/03/04 09:40:59;;;;;;;42.30;18.10;;;5.70;89.50;;;;;;4995749;28;20065;-76
2022/03/04 09:43:24;;;;;;;29.05;13.65;;;5.50;90.00;;;;;;5012947;28;20112;-76
2022/03/04 09:45:50;;;;;;;25.40;11.48;;;5.70;90.10;;;;;;5013044;28;20138;-73
2022/03/04 09:48:17;;;;;;;21.65;10.05;;;5.80;90.00;;;;;;5013737;28;20034;-76
2022/03/04 09:50:45;;;;;;;27.25;12.82;;;5.70;89.50;;;;;;5013131;28;20033;-79
2022/03/04 09:53:12;;;;;;;25.95;12.25;;;5.70;89.60;;;;;;4995265;28;20364;-75
2022/03/04 09:55:38;;;;;;;20.65;9.18;;;5.60;89.60;;;;;;5012860;28;20030;-76
2022/03/04 09:58:10;;;;;;;22.40;10.15;;;5.60;89.90;;;;;;5013099;28;20041;-75
2022/03/04 10:00:35;;;;;;;19.02;10.10;;;5.70;90.10;;;;;;5013746;28;20026;-75
2022/03/04 10:03:01;;;;;;;22.30;9.80;;;6.00;90.10;;;;;;5012828;28;20022;-76
2022/03/04 10:05:27;;;;;;;24.00;10.88;;;6.00;89.50;;;;;;5012773;28;20037;-75
2022/03/04 10:07:52;;;;;;;20.98;9.38;;;6.00;88.80;;;;;;5012524;28;20034;-76
2022/03/04 10:10:22;;;;;;;17.50;8.52;;;6.10;88.80;;;;;;4995470;28;20149;-74
2022/03/04 10:12:48;;;;;;;23.05;9.45;;;6.20;88.60;;;;;;4994614;28;20080;-76
2022/03/04 10:15:14;;;;;;;25.73;10.45;;;6.20;88.60;;;;;;4995578;28;20018;-76
2022/03/04 10:17:40;;;;;;;18.55;7.93;;;6.50;88.70;;;;;;5012588;28;20108;-78
2022/03/04 10:20:09;;;;;;;18.95;7.95;;;6.80;87.90;;;;;;5012629;28;20034;-76
2022/03/04 10:22:42;;;;;;;14.88;7.25;;;6.90;87.20;;;;;;5012228;28;20033;-77
2022/03/04 10:25:16;;;;;;;18.10;8.05;;;7.20;86.40;;;;;;5011325;28;20541;-78
2022/03/04 10:27:42;;;;;;;14.02;7.00;;;7.30;85.70;;;;;;5011858;28;20034;-75
2022/03/04 10:30:08;;;;;;;22.08;9.68;;;7.40;85.10;;;;;;4994929;28;20423;-77
2022/03/04 10:32:34;;;;;;;15.00;6.85;;;8.00;85.00;;;;;;4994612;28;20357;-75
2022/03/04 10:35:04;;;;;;;18.08;9.05;;;8.20;83.40;;;;;;5011869;28;20034;-75
2022/03/04 10:37:51;;;;;;;16.15;7.82;;;8.20;82.60;;;;;;5011862;28;20038;-75
2022/03/04 10:40:26;;;;;;;16.35;8.43;;;8.30;82.40;;;;;;5012022;28;20061;-77
2022/03/04 10:42:56;;;;;;;14.48;7.70;;;8.40;81.60;;;;;;5012990;28;20079;-77
2022/03/04 10:45:27;;;;;;;13.80;7.53;;;8.60;81.80;;;;;;5012527;28;20113;-79
2022/03/04 10:47:56;;;;;;;14.93;7.22;;;8.90;81.10;;;;;;5011567;28;20030;-80
2022/03/04 10:50:34;;;;;;;14.82;6.93;;;9.20;79.90;;;;;;5011914;28;20033;-75
2022/03/04 10:53:03;;;;;;;19.60;7.75;;;8.80;79.50;;;;;;5011838;28;20044;-77
2022/03/04 10:55:36;;;;;;;17.58;8.57;;;9.10;79.70;;;;;;5011979;28;20056;-78
2022/03/04 10:58:05;;;;;;;47.22;22.63;;;9.30;78.70;;;;;;5011434;28;20088;-79
2022/03/04 11:00:36;;;;;;;24.58;11.07;;;9.40;78.00;;;;;;5012428;28;20022;-79
2022/03/04 11:03:03;;;;;;;20.52;10.00;;;9.50;77.60;;;;;;5011771;28;20479;-77
2022/03/04 11:05:29;;;;;;;14.48;7.03;;;9.90;78.40;;;;;;5011792;28;20045;-75
2022/03/04 11:07:55;;;;;;;16.50;7.43;;;10.00;75.60;;;;;;4994292;28;20038;-76
2022/03/04 11:10:22;;;;;;;15.32;6.82;;;9.80;76.10;;;;;;4993863;28;20022;-77
2022/03/04 11:12:53;;;;;;;15.88;6.28;;;9.70;76.20;;;;;;5011509;28;20022;-78
2022/03/04 11:15:19;;;;;;;11.57;5.93;;;9.50;76.40;;;;;;5011911;28;20026;-77
2022/03/04 11:17:46;;;;;;;14.05;6.57;;;8.90;77.50;;;;;;5011244;28;20141;-77
2022/03/04 11:20:13;;;;;;;15.23;6.50;;;8.70;78.30;;;;;;4993708;28;20080;-78
2022/03/04 11:22:41;;;;;;;13.63;6.22;;;8.60;79.00;;;;;;5011157;28;20087;-80
2022/03/04 11:25:15;;;;;;;11.40;6.05;;;8.50;79.30;;;;;;4993202;28;20399;-74
2022/03/04 11:27:43;;;;;;;13.27;5.50;;;8.40;79.30;;;;;;5010656;28;20029;-74
2022/03/04 11:30:28;;;;;;;;;;;8.40;78.90;;;;;;4994141;28;20030;-76
2022/03/04 11:33:10;;;;;;;11.20;6.30;;;8.20;79.10;;;;;;5010805;28;19921;-76
2022/03/04 11:35:42;;;;;;;10.63;5.07;;;8.10;79.50;;;;;;5010512;28;20079;-77
2022/03/04 11:38:08;;;;;;;10.18;5.03;;;7.90;80.20;;;;;;5010343;28;20038;-76
2022/03/04 11:40:35;;;;;;;13.90;5.32;;;7.80;80.60;;;;;;4993214;28;20083;-78
2022/03/04 11:43:02;;;;;;;12.68;6.40;;;7.70;80.80;;;;;;5010625;28;20030;-76
2022/03/04 11:45:34;;;;;;;13.10;5.72;;;7.70;80.80;;;;;;5011471;28;20105;-80
2022/03/04 11:48:13;;;;;;;13.60;6.68;;;7.70;80.60;;;;;;5010593;28;20022;-77
2022/03/04 11:50:45;;;;;;;12.15;5.80;;;7.60;80.50;;;;;;4992868;28;20060;-78
2022/03/04 11:53:16;;;;;;;13.00;6.07;;;7.50;80.90;;;;;;5010616;28;20034;-77
2022/03/04 11:56:11;;;;;;;16.23;5.72;;;7.50;81.10;;;;;;4993166;28;20034;-79
2022/03/04 11:59:05;;;;;;;14.45;5.95;;;7.50;81.20;;;;;;4993343;28;20033;-75
2022/03/04 12:01:36;;;;;;;13.70;6.22;;;7.50;81.10;;;;;;4992924;28;20049;-80
2022/03/04 12:04:13;;;;;;;14.52;6.78;;;7.50;81.10;;;;;;5010377;28;20033;-80
2022/03/04 12:06:40;;;;;;;13.38;6.22;;;7.60;81.10;;;;;;4992964;28;20026;-77
2022/03/04 12:09:28;;;;;;;14.75;6.60;;;7.50;81.20;;;;;;5011281;28;20030;-76
2022/03/04 12:12:17;;;;;;;12.60;6.45;;;7.40;81.70;;;;;;5011232;28;20470;-73
2022/03/04 12:14:46;;;;;;;13.93;6.70;;;7.30;82.00;;;;;;5011557;28;20030;-75
2022/03/04 12:17:12;;;;;;;21.05;8.40;;;7.20;82.80;;;;;;5011426;28;20053;-79
2022/03/04 12:19:37;;;;;;;16.98;7.97;;;7.20;83.20;;;;;;5010864;28;20428;-77
2022/03/04 12:22:06;;;;;;;17.40;7.80;;;7.30;83.10;;;;;;4993503;28;20034;-77
2022/03/04 12:24:33;;;;;;;16.77;7.35;;;7.30;83.30;;;;;;4994102;28;20045;-77
2022/03/04 12:27:00;;;;;;;17.00;7.57;;;7.20;83.60;;;;;;5010715;28;20060;-75
2022/03/04 12:29:47;;;;;;;19.48;8.10;;;6.90;84.20;;;;;;4993057;28;20042;-79
2022/03/04 12:32:13;;;;;;;17.13;8.27;;;6.60;85.20;;;;;;5010492;28;20044;-76
2022/03/04 12:34:50;;;;;;;18.70;7.95;;;6.50;85.50;;;;;;5009869;28;20034;-71
2022/03/04 12:37:16;;;;;;;17.40;6.93;;;6.60;85.50;;;;;;4992358;28;20068;-73
2022/03/04 12:39:46;;;;;;;16.13;7.03;;;6.80;85.10;;;;;;5009971;28;20026;-76
2022/03/04 12:42:12;;;;;;;19.65;7.47;;;6.60;84.90;;;;;;5010440;28;20030;-75
2022/03/04 12:44:38;;;;;;;17.50;7.78;;;6.60;85.20;;;;;;5011140;28;20034;-72
2022/03/04 12:47:04;;;;;;;14.48;6.90;;;6.60;85.20;;;;;;5009963;28;20048;-76